LTCK/MSR METAR and TAF weather

Enter ICAO airport designator
Station Type Date Time Source
LTCK METAR 2019/04/25 13:50 UTC NOAA

LTCK 251350Z 35006KT 300V050 9999 SCT040 14/M06 Q1022


Station Type Date Time Source
LTCK Decoded METAR 2019/04/25 13:50 UTC NOAA

Mus Tur-Afb , Turkey (LTCK) 38-45N 041-40E
Apr 25, 2019 - 09:50 AM EDT / 2019.04.25 1350 UTC
Wind: from the N (350 degrees) at 7 MPH (6 KT) (direction variable):0
Visibility: greater than 7 mile(s):0
Sky conditions: partly cloudy
Temperature: 57 F (14 C)
Dew Point: 21 F (-6 C)
Relative Humidity: 24%
Pressure (altimeter): 30.18 in. Hg (1022 hPa)
ob: LTCK 251350Z 35006KT 300V050 9999 SCT040 14/M06 Q1022
cycle: 14

Station Type Date Time Source
LTCK TAF UTC NOAA

Error!

Example: see airport list